sensor_id;sensor_type;location;lat;lon;timestamp;P1;durP1;ratioP1;P2;durP2;ratioP2
15363;SDS011;7781;49.690;6.472;2022-12-18T00:00:32;10.05;;;5.28;;
15363;SDS011;7781;49.690;6.472;2022-12-18T00:03:03;9.30;;;4.85;;
15363;SDS011;7781;49.690;6.472;2022-12-18T00:05:32;11.18;;;5.18;;
15363;SDS011;7781;49.690;6.472;2022-12-18T00:08:02;9.05;;;3.78;;
15363;SDS011;7781;49.690;6.472;2022-12-18T00:10:35;13.05;;;4.60;;
15363;SDS011;7781;49.690;6.472;2022-12-18T00:13:04;14.60;;;4.78;;
15363;SDS011;7781;49.690;6.472;2022-12-18T00:15:36;6.90;;;4.40;;
15363;SDS011;7781;49.690;6.472;2022-12-18T00:18:09;7.55;;;4.07;;
15363;SDS011;7781;49.690;6.472;2022-12-18T00:20:44;12.45;;;5.13;;
15363;SDS011;7781;49.690;6.472;2022-12-18T00:23:13;11.30;;;5.00;;
15363;SDS011;7781;49.690;6.472;2022-12-18T00:25:43;9.70;;;4.25;;
15363;SDS011;7781;49.690;6.472;2022-12-18T00:28:12;7.55;;;4.95;;
15363;SDS011;7781;49.690;6.472;2022-12-18T00:30:41;18.63;;;5.10;;
15363;SDS011;7781;49.690;6.472;2022-12-18T00:33:12;13.55;;;4.43;;
15363;SDS011;7781;49.690;6.472;2022-12-18T00:35:41;7.72;;;4.55;;
15363;SDS011;7781;49.690;6.472;2022-12-18T00:38:10;10.32;;;4.93;;
15363;SDS011;7781;49.690;6.472;2022-12-18T00:40:39;10.18;;;4.43;;
15363;SDS011;7781;49.690;6.472;2022-12-18T00:43:09;11.13;;;4.85;;
15363;SDS011;7781;49.690;6.472;2022-12-18T00:45:37;10.93;;;5.10;;
15363;SDS011;7781;49.690;6.472;2022-12-18T00:48:06;1.95;;;1.77;;
15363;SDS011;7781;49.690;6.472;2022-12-18T00:50:37;10.60;;;5.43;;
15363;SDS011;7781;49.690;6.472;2022-12-18T00:53:06;9.27;;;1.65;;
15363;SDS011;7781;49.690;6.472;2022-12-18T00:55:39;4.97;;;4.25;;
15363;SDS011;7781;49.690;6.472;2022-12-18T00:58:08;10.80;;;5.53;;
15363;SDS011;7781;49.690;6.472;2022-12-18T01:00:39;8.07;;;3.63;;
15363;SDS011;7781;49.690;6.472;2022-12-18T01:03:11;8.55;;;4.70;;
15363;SDS011;7781;49.690;6.472;2022-12-18T01:05:44;3.55;;;3.05;;
15363;SDS011;7781;49.690;6.472;2022-12-18T01:08:13;9.10;;;4.00;;
15363;SDS011;7781;49.690;6.472;2022-12-18T01:10:43;10.57;;;4.22;;
15363;SDS011;7781;49.690;6.472;2022-12-18T01:13:12;8.75;;;3.40;;
15363;SDS011;7781;49.690;6.472;2022-12-18T01:15:47;10.40;;;4.40;;
15363;SDS011;7781;49.690;6.472;2022-12-18T01:18:17;10.55;;;4.40;;
15363;SDS011;7781;49.690;6.472;2022-12-18T01:20:48;8.82;;;4.90;;
15363;SDS011;7781;49.690;6.472;2022-12-18T01:23:17;4.68;;;3.10;;
15363;SDS011;7781;49.690;6.472;2022-12-18T01:25:47;6.55;;;3.70;;
15363;SDS011;7781;49.690;6.472;2022-12-18T01:28:17;5.63;;;3.90;;
15363;SDS011;7781;49.690;6.472;2022-12-18T01:30:46;9.98;;;4.20;;
15363;SDS011;7781;49.690;6.472;2022-12-18T01:33:16;8.57;;;3.45;;
15363;SDS011;7781;49.690;6.472;2022-12-18T01:35:45;9.00;;;4.00;;
15363;SDS011;7781;49.690;6.472;2022-12-18T01:38:19;11.38;;;5.07;;
15363;SDS011;7781;49.690;6.472;2022-12-18T01:40:48;13.55;;;5.82;;
15363;SDS011;7781;49.690;6.472;2022-12-18T01:43:17;7.47;;;4.63;;
15363;SDS011;7781;49.690;6.472;2022-12-18T01:45:46;10.73;;;3.88;;
15363;SDS011;7781;49.690;6.472;2022-12-18T01:48:15;11.25;;;3.55;;
15363;SDS011;7781;49.690;6.472;2022-12-18T01:50:45;4.97;;;2.90;;
15363;SDS011;7781;49.690;6.472;2022-12-18T01:53:20;7.57;;;4.38;;
15363;SDS011;7781;49.690;6.472;2022-12-18T01:55:52;8.70;;;3.55;;
15363;SDS011;7781;49.690;6.472;2022-12-18T01:58:23;10.38;;;4.97;;
15363;SDS011;7781;49.690;6.472;2022-12-18T02:00:59;9.70;;;4.25;;
15363;SDS011;7781;49.690;6.472;2022-12-18T02:03:28;11.20;;;4.05;;
15363;SDS011;7781;49.690;6.472;2022-12-18T02:05:57;6.35;;;3.75;;
15363;SDS011;7781;49.690;6.472;2022-12-18T02:08:37;4.47;;;2.53;;
15363;SDS011;7781;49.690;6.472;2022-12-18T02:11:15;7.00;;;4.40;;
15363;SDS011;7781;49.690;6.472;2022-12-18T02:13:51;10.02;;;4.82;;
15363;SDS011;7781;49.690;6.472;2022-12-18T02:16:29;7.22;;;4.10;;
15363;SDS011;7781;49.690;6.472;2022-12-18T02:19:21;6.07;;;4.07;;
15363;SDS011;7781;49.690;6.472;2022-12-18T02:22:26;4.20;;;3.88;;
15363;SDS011;7781;49.690;6.472;2022-12-18T02:25:11;2.42;;;2.22;;
15363;SDS011;7781;49.690;6.472;2022-12-18T02:27:49;12.50;;;3.95;;
15363;SDS011;7781;49.690;6.472;2022-12-18T02:30:20;7.68;;;4.20;;
15363;SDS011;7781;49.690;6.472;2022-12-18T02:32:50;12.57;;;5.93;;
15363;SDS011;7781;49.690;6.472;2022-12-18T02:35:23;5.50;;;2.30;;
15363;SDS011;7781;49.690;6.472;2022-12-18T02:37:58;5.32;;;3.42;;
15363;SDS011;7781;49.690;6.472;2022-12-18T02:40:30;9.32;;;4.53;;
15363;SDS011;7781;49.690;6.472;2022-12-18T02:43:06;4.55;;;3.53;;
15363;SDS011;7781;49.690;6.472;2022-12-18T02:45:46;6.93;;;3.97;;
15363;SDS011;7781;49.690;6.472;2022-12-18T02:48:16;7.20;;;3.45;;
15363;SDS011;7781;49.690;6.472;2022-12-18T02:50:50;9.27;;;3.95;;
15363;SDS011;7781;49.690;6.472;2022-12-18T02:53:27;7.20;;;3.60;;
15363;SDS011;7781;49.690;6.472;2022-12-18T02:56:05;6.45;;;3.53;;
15363;SDS011;7781;49.690;6.472;2022-12-18T02:58:44;4.18;;;2.95;;
15363;SDS011;7781;49.690;6.472;2022-12-18T03:01:33;8.57;;;3.80;;
15363;SDS011;7781;49.690;6.472;2022-12-18T03:04:11;8.35;;;4.50;;
15363;SDS011;7781;49.690;6.472;2022-12-18T03:06:46;7.15;;;3.83;;
15363;SDS011;7781;49.690;6.472;2022-12-18T03:09:18;4.50;;;2.75;;
15363;SDS011;7781;49.690;6.472;2022-12-18T03:11:53;5.60;;;3.85;;
15363;SDS011;7781;49.690;6.472;2022-12-18T03:14:46;8.60;;;5.50;;
15363;SDS011;7781;49.690;6.472;2022-12-18T03:17:18;7.32;;;3.88;;
15363;SDS011;7781;49.690;6.472;2022-12-18T03:19:51;13.15;;;4.03;;
15363;SDS011;7781;49.690;6.472;2022-12-18T03:22:21;5.53;;;3.45;;
15363;SDS011;7781;49.690;6.472;2022-12-18T03:24:56;2.97;;;1.50;;
15363;SDS011;7781;49.690;6.472;2022-12-18T03:27:28;12.60;;;4.82;;
15363;SDS011;7781;49.690;6.472;2022-12-18T03:30:07;5.55;;;3.65;;
15363;SDS011;7781;49.690;6.472;2022-12-18T03:32:41;5.05;;;3.92;;
15363;SDS011;7781;49.690;6.472;2022-12-18T03:35:16;5.25;;;2.50;;
15363;SDS011;7781;49.690;6.472;2022-12-18T03:37:51;10.63;;;3.25;;
15363;SDS011;7781;49.690;6.472;2022-12-18T03:40:23;5.13;;;3.33;;
15363;SDS011;7781;49.690;6.472;2022-12-18T03:42:59;3.70;;;1.23;;
15363;SDS011;7781;49.690;6.472;2022-12-18T03:45:37;3.75;;;3.08;;
15363;SDS011;7781;49.690;6.472;2022-12-18T03:48:12;5.90;;;3.08;;
15363;SDS011;7781;49.690;6.472;2022-12-18T03:50:48;12.52;;;3.33;;
15363;SDS011;7781;49.690;6.472;2022-12-18T03:53:25;8.75;;;4.05;;
15363;SDS011;7781;49.690;6.472;2022-12-18T03:56:03;5.60;;;2.92;;
15363;SDS011;7781;49.690;6.472;2022-12-18T03:58:38;10.15;;;4.28;;
15363;SDS011;7781;49.690;6.472;2022-12-18T04:01:22;5.47;;;3.47;;
15363;SDS011;7781;49.690;6.472;2022-12-18T04:03:55;6.40;;;2.53;;
15363;SDS011;7781;49.690;6.472;2022-12-18T04:06:29;3.35;;;2.22;;
15363;SDS011;7781;49.690;6.472;2022-12-18T04:09:01;1.25;;;1.20;;
15363;SDS011;7781;49.690;6.472;2022-12-18T04:11:35;8.80;;;2.90;;
15363;SDS011;7781;49.690;6.472;2022-12-18T04:14:05;1.75;;;1.40;;
15363;SDS011;7781;49.690;6.472;2022-12-18T04:16:38;3.30;;;2.25;;
15363;SDS011;7781;49.690;6.472;2022-12-18T04:19:12;6.32;;;3.80;;
15363;SDS011;7781;49.690;6.472;2022-12-18T04:21:44;4.28;;;2.97;;
15363;SDS011;7781;49.690;6.472;2022-12-18T04:24:14;2.85;;;2.40;;
15363;SDS011;7781;49.690;6.472;2022-12-18T04:26:54;5.72;;;3.03;;
15363;SDS011;7781;49.690;6.472;2022-12-18T04:29:27;4.90;;;4.07;;
15363;SDS011;7781;49.690;6.472;2022-12-18T04:31:58;2.20;;;1.83;;
15363;SDS011;7781;49.690;6.472;2022-12-18T04:34:30;6.97;;;3.13;;
15363;SDS011;7781;49.690;6.472;2022-12-18T04:36:59;4.70;;;3.47;;
15363;SDS011;7781;49.690;6.472;2022-12-18T04:39:29;10.43;;;4.57;;
15363;SDS011;7781;49.690;6.472;2022-12-18T04:42:04;3.08;;;2.80;;
15363;SDS011;7781;49.690;6.472;2022-12-18T04:44:33;2.92;;;2.65;;
15363;SDS011;7781;49.690;6.472;2022-12-18T04:47:04;5.40;;;3.15;;
15363;SDS011;7781;49.690;6.472;2022-12-18T04:49:34;5.63;;;3.40;;
15363;SDS011;7781;49.690;6.472;2022-12-18T04:52:03;2.85;;;2.40;;
15363;SDS011;7781;49.690;6.472;2022-12-18T04:54:39;4.10;;;2.72;;
15363;SDS011;7781;49.690;6.472;2022-12-18T04:57:08;10.23;;;4.20;;
15363;SDS011;7781;49.690;6.472;2022-12-18T04:59:41;4.40;;;3.20;;
15363;SDS011;7781;49.690;6.472;2022-12-18T05:02:12;3.42;;;3.05;;
15363;SDS011;7781;49.690;6.472;2022-12-18T05:04:42;2.30;;;2.10;;
15363;SDS011;7781;49.690;6.472;2022-12-18T05:07:11;5.88;;;3.70;;
15363;SDS011;7781;49.690;6.472;2022-12-18T05:09:40;8.95;;;4.05;;
15363;SDS011;7781;49.690;6.472;2022-12-18T05:12:08;9.43;;;4.03;;
15363;SDS011;7781;49.690;6.472;2022-12-18T05:14:38;7.97;;;3.35;;
15363;SDS011;7781;49.690;6.472;2022-12-18T05:17:06;2.67;;;2.25;;
15363;SDS011;7781;49.690;6.472;2022-12-18T05:19:37;6.63;;;3.42;;
15363;SDS011;7781;49.690;6.472;2022-12-18T05:22:07;8.50;;;3.05;;
15363;SDS011;7781;49.690;6.472;2022-12-18T05:24:38;5.22;;;3.40;;
15363;SDS011;7781;49.690;6.472;2022-12-18T05:27:07;7.10;;;3.92;;
15363;SDS011;7781;49.690;6.472;2022-12-18T05:29:36;9.40;;;3.72;;
15363;SDS011;7781;49.690;6.472;2022-12-18T05:32:07;14.32;;;5.97;;
15363;SDS011;7781;49.690;6.472;2022-12-18T05:34:38;17.38;;;4.60;;
15363;SDS011;7781;49.690;6.472;2022-12-18T05:37:07;4.57;;;2.90;;
15363;SDS011;7781;49.690;6.472;2022-12-18T05:39:35;5.55;;;4.53;;
15363;SDS011;7781;49.690;6.472;2022-12-18T05:42:04;5.60;;;3.20;;
15363;SDS011;7781;49.690;6.472;2022-12-18T05:44:33;5.25;;;3.72;;
15363;SDS011;7781;49.690;6.472;2022-12-18T05:47:02;10.63;;;4.32;;
15363;SDS011;7781;49.690;6.472;2022-12-18T05:49:32;3.95;;;2.80;;
15363;SDS011;7781;49.690;6.472;2022-12-18T05:52:04;6.50;;;2.75;;
15363;SDS011;7781;49.690;6.472;2022-12-18T05:54:33;8.10;;;3.78;;
15363;SDS011;7781;49.690;6.472;2022-12-18T05:57:02;8.63;;;4.30;;
15363;SDS011;7781;49.690;6.472;2022-12-18T05:59:31;7.18;;;3.78;;
15363;SDS011;7781;49.690;6.472;2022-12-18T06:02:00;2.47;;;2.17;;
15363;SDS011;7781;49.690;6.472;2022-12-18T06:04:30;5.18;;;1.88;;
15363;SDS011;7781;49.690;6.472;2022-12-18T06:06:58;8.63;;;4.13;;
15363;SDS011;7781;49.690;6.472;2022-12-18T06:09:36;6.70;;;4.00;;
15363;SDS011;7781;49.690;6.472;2022-12-18T06:12:05;11.40;;;4.72;;
15363;SDS011;7781;49.690;6.472;2022-12-18T06:14:35;5.13;;;2.90;;
15363;SDS011;7781;49.690;6.472;2022-12-18T06:17:06;7.45;;;3.92;;
15363;SDS011;7781;49.690;6.472;2022-12-18T06:19:35;9.15;;;4.10;;
15363;SDS011;7781;49.690;6.472;2022-12-18T06:22:04;10.73;;;2.92;;
15363;SDS011;7781;49.690;6.472;2022-12-18T06:24:33;5.60;;;4.00;;
15363;SDS011;7781;49.690;6.472;2022-12-18T06:27:04;5.25;;;3.10;;
15363;SDS011;7781;49.690;6.472;2022-12-18T06:29:34;7.78;;;3.83;;
15363;SDS011;7781;49.690;6.472;2022-12-18T06:32:04;10.63;;;4.40;;
15363;SDS011;7781;49.690;6.472;2022-12-18T06:34:33;4.40;;;3.10;;
15363;SDS011;7781;49.690;6.472;2022-12-18T06:37:03;9.00;;;4.35;;
15363;SDS011;7781;49.690;6.472;2022-12-18T06:39:32;5.45;;;3.42;;
15363;SDS011;7781;49.690;6.472;2022-12-18T06:42:04;7.60;;;4.03;;
15363;SDS011;7781;49.690;6.472;2022-12-18T06:44:34;6.45;;;4.35;;
15363;SDS011;7781;49.690;6.472;2022-12-18T06:47:03;6.35;;;3.92;;
15363;SDS011;7781;49.690;6.472;2022-12-18T06:49:32;8.73;;;4.90;;
15363;SDS011;7781;49.690;6.472;2022-12-18T06:52:01;6.88;;;2.75;;
15363;SDS011;7781;49.690;6.472;2022-12-18T06:54:30;6.63;;;4.20;;
15363;SDS011;7781;49.690;6.472;2022-12-18T06:56:59;7.45;;;3.92;;
15363;SDS011;7781;49.690;6.472;2022-12-18T06:59:31;8.27;;;3.50;;
15363;SDS011;7781;49.690;6.472;2022-12-18T07:02:02;6.60;;;3.75;;
15363;SDS011;7781;49.690;6.472;2022-12-18T07:04:32;6.95;;;3.78;;
15363;SDS011;7781;49.690;6.472;2022-12-18T07:07:01;8.63;;;3.65;;
15363;SDS011;7781;49.690;6.472;2022-12-18T07:09:30;6.10;;;3.42;;
15363;SDS011;7781;49.690;6.472;2022-12-18T07:11:59;3.92;;;3.42;;
15363;SDS011;7781;49.690;6.472;2022-12-18T07:14:34;7.82;;;3.60;;
15363;SDS011;7781;49.690;6.472;2022-12-18T07:17:03;9.35;;;3.55;;
15363;SDS011;7781;49.690;6.472;2022-12-18T07:19:33;6.10;;;2.90;;
15363;SDS011;7781;49.690;6.472;2022-12-18T07:22:02;7.03;;;4.05;;
15363;SDS011;7781;49.690;6.472;2022-12-18T07:24:32;12.88;;;2.47;;
15363;SDS011;7781;49.690;6.472;2022-12-18T07:27:01;7.22;;;4.00;;
15363;SDS011;7781;49.690;6.472;2022-12-18T07:29:35;8.20;;;3.42;;
15363;SDS011;7781;49.690;6.472;2022-12-18T07:32:05;8.15;;;2.90;;
15363;SDS011;7781;49.690;6.472;2022-12-18T07:34:35;6.72;;;2.95;;
15363;SDS011;7781;49.690;6.472;2022-12-18T07:37:04;6.63;;;2.85;;
15363;SDS011;7781;49.690;6.472;2022-12-18T07:39:34;5.65;;;3.55;;
15363;SDS011;7781;49.690;6.472;2022-12-18T07:42:03;7.35;;;3.90;;
15363;SDS011;7781;49.690;6.472;2022-12-18T07:44:53;7.38;;;3.33;;
15363;SDS011;7781;49.690;6.472;2022-12-18T07:47:22;16.70;;;6.47;;
15363;SDS011;7781;49.690;6.472;2022-12-18T07:49:51;7.20;;;4.53;;
15363;SDS011;7781;49.690;6.472;2022-12-18T07:52:21;21.95;;;6.95;;
15363;SDS011;7781;49.690;6.472;2022-12-18T07:54:52;8.20;;;5.57;;
15363;SDS011;7781;49.690;6.472;2022-12-18T07:57:22;8.05;;;3.80;;
15363;SDS011;7781;49.690;6.472;2022-12-18T08:00:14;8.88;;;4.35;;
15363;SDS011;7781;49.690;6.472;2022-12-18T08:02:44;9.10;;;4.18;;
15363;SDS011;7781;49.690;6.472;2022-12-18T08:05:14;10.40;;;4.68;;
15363;SDS011;7781;49.690;6.472;2022-12-18T08:07:43;7.80;;;4.65;;
15363;SDS011;7781;49.690;6.472;2022-12-18T08:10:12;8.73;;;5.00;;
15363;SDS011;7781;49.690;6.472;2022-12-18T08:12:41;8.63;;;4.80;;
15363;SDS011;7781;49.690;6.472;2022-12-18T08:15:10;9.43;;;4.70;;
15363;SDS011;7781;49.690;6.472;2022-12-18T08:17:42;10.43;;;4.15;;
15363;SDS011;7781;49.690;6.472;2022-12-18T08:20:11;9.80;;;4.82;;
15363;SDS011;7781;49.690;6.472;2022-12-18T08:22:41;9.98;;;3.70;;
15363;SDS011;7781;49.690;6.472;2022-12-18T08:25:10;11.18;;;5.03;;
15363;SDS011;7781;49.690;6.472;2022-12-18T08:27:39;10.85;;;4.85;;
15363;SDS011;7781;49.690;6.472;2022-12-18T08:30:09;10.27;;;5.05;;
15363;SDS011;7781;49.690;6.472;2022-12-18T08:32:39;7.10;;;4.20;;
15363;SDS011;7781;49.690;6.472;2022-12-18T08:35:10;10.55;;;5.13;;
15363;SDS011;7781;49.690;6.472;2022-12-18T08:37:44;11.43;;;5.25;;
15363;SDS011;7781;49.690;6.472;2022-12-18T08:40:15;12.70;;;5.35;;
15363;SDS011;7781;49.690;6.472;2022-12-18T08:42:44;8.27;;;5.40;;
15363;SDS011;7781;49.690;6.472;2022-12-18T08:45:30;6.45;;;4.63;;
15363;SDS011;7781;49.690;6.472;2022-12-18T08:48:04;7.60;;;5.18;;
15363;SDS011;7781;49.690;6.472;2022-12-18T08:50:35;8.93;;;5.43;;
15363;SDS011;7781;49.690;6.472;2022-12-18T08:53:10;12.82;;;6.03;;
15363;SDS011;7781;49.690;6.472;2022-12-18T08:55:38;10.70;;;5.63;;
15363;SDS011;7781;49.690;6.472;2022-12-18T08:58:16;12.00;;;6.20;;
15363;SDS011;7781;49.690;6.472;2022-12-18T09:00:44;9.05;;;4.88;;
15363;SDS011;7781;49.690;6.472;2022-12-18T09:03:17;11.23;;;5.50;;
15363;SDS011;7781;49.690;6.472;2022-12-18T09:05:50;10.73;;;5.80;;
15363;SDS011;7781;49.690;6.472;2022-12-18T09:08:19;9.20;;;5.13;;
15363;SDS011;7781;49.690;6.472;2022-12-18T09:10:48;13.73;;;4.97;;
15363;SDS011;7781;49.690;6.472;2022-12-18T09:13:19;7.18;;;4.22;;
15363;SDS011;7781;49.690;6.472;2022-12-18T09:15:50;11.18;;;6.03;;
15363;SDS011;7781;49.690;6.472;2022-12-18T09:18:21;7.55;;;4.70;;
15363;SDS011;7781;49.690;6.472;2022-12-18T09:20:52;10.95;;;5.03;;
15363;SDS011;7781;49.690;6.472;2022-12-18T09:23:21;18.77;;;5.90;;
15363;SDS011;7781;49.690;6.472;2022-12-18T09:25:52;8.05;;;4.18;;
15363;SDS011;7781;49.690;6.472;2022-12-18T09:28:26;5.97;;;3.15;;
15363;SDS011;7781;49.690;6.472;2022-12-18T09:30:55;11.80;;;4.20;;
15363;SDS011;7781;49.690;6.472;2022-12-18T09:33:26;14.80;;;5.30;;
15363;SDS011;7781;49.690;6.472;2022-12-18T09:35:56;12.13;;;5.13;;
15363;SDS011;7781;49.690;6.472;2022-12-18T09:38:25;10.45;;;5.65;;
15363;SDS011;7781;49.690;6.472;2022-12-18T09:40:53;9.80;;;5.30;;
15363;SDS011;7781;49.690;6.472;2022-12-18T09:43:28;12.40;;;5.10;;
15363;SDS011;7781;49.690;6.472;2022-12-18T09:46:05;9.40;;;4.88;;
15363;SDS011;7781;49.690;6.472;2022-12-18T09:48:38;9.48;;;5.25;;
15363;SDS011;7781;49.690;6.472;2022-12-18T09:51:13;10.02;;;5.03;;
15363;SDS011;7781;49.690;6.472;2022-12-18T09:53:46;11.18;;;5.25;;
15363;SDS011;7781;49.690;6.472;2022-12-18T09:56:20;15.15;;;5.93;;
15363;SDS011;7781;49.690;6.472;2022-12-18T09:58:53;10.50;;;5.82;;
15363;SDS011;7781;49.690;6.472;2022-12-18T10:01:25;12.30;;;5.73;;
15363;SDS011;7781;49.690;6.472;2022-12-18T10:04:09;9.80;;;5.10;;
15363;SDS011;7781;49.690;6.472;2022-12-18T10:06:41;11.03;;;6.30;;
15363;SDS011;7781;49.690;6.472;2022-12-18T10:09:16;10.90;;;6.33;;
15363;SDS011;7781;49.690;6.472;2022-12-18T10:11:54;11.93;;;7.05;;
15363;SDS011;7781;49.690;6.472;2022-12-18T10:14:34;16.00;;;6.53;;
15363;SDS011;7781;49.690;6.472;2022-12-18T10:17:12;12.30;;;7.20;;
15363;SDS011;7781;49.690;6.472;2022-12-18T10:19:54;14.63;;;7.30;;
15363;SDS011;7781;49.690;6.472;2022-12-18T10:22:35;13.50;;;7.00;;
15363;SDS011;7781;49.690;6.472;2022-12-18T10:25:15;13.90;;;7.50;;
15363;SDS011;7781;49.690;6.472;2022-12-18T10:27:50;12.80;;;7.23;;
15363;SDS011;7781;49.690;6.472;2022-12-18T10:30:22;11.27;;;5.70;;
15363;SDS011;7781;49.690;6.472;2022-12-18T10:32:52;14.30;;;6.93;;
15363;SDS011;7781;49.690;6.472;2022-12-18T10:35:21;14.03;;;6.20;;
15363;SDS011;7781;49.690;6.472;2022-12-18T10:38:21;12.80;;;6.40;;
15363;SDS011;7781;49.690;6.472;2022-12-18T10:40:52;11.93;;;6.47;;
15363;SDS011;7781;49.690;6.472;2022-12-18T10:43:26;16.00;;;6.93;;
15363;SDS011;7781;49.690;6.472;2022-12-18T10:46:01;13.53;;;7.17;;
15363;SDS011;7781;49.690;6.472;2022-12-18T10:48:36;20.90;;;10.23;;
15363;SDS011;7781;49.690;6.472;2022-12-18T10:51:11;13.00;;;7.00;;
15363;SDS011;7781;49.690;6.472;2022-12-18T10:53:53;14.20;;;7.03;;
15363;SDS011;7781;49.690;6.472;2022-12-18T10:56:24;16.10;;;7.57;;
15363;SDS011;7781;49.690;6.472;2022-12-18T10:58:57;16.60;;;6.97;;
15363;SDS011;7781;49.690;6.472;2022-12-18T11:01:28;16.97;;;6.53;;
15363;SDS011;7781;49.690;6.472;2022-12-18T11:04:15;11.30;;;7.77;;
15363;SDS011;7781;49.690;6.472;2022-12-18T11:06:56;16.97;;;7.67;;
15363;SDS011;7781;49.690;6.472;2022-12-18T11:09:29;17.37;;;10.27;;
15363;SDS011;7781;49.690;6.472;2022-12-18T11:12:00;19.07;;;8.50;;
15363;SDS011;7781;49.690;6.472;2022-12-18T11:14:33;13.73;;;7.40;;
15363;SDS011;7781;49.690;6.472;2022-12-18T11:17:17;15.73;;;7.87;;
15363;SDS011;7781;49.690;6.472;2022-12-18T11:19:52;16.93;;;8.40;;
15363;SDS011;7781;49.690;6.472;2022-12-18T11:22:23;13.70;;;7.13;;
15363;SDS011;7781;49.690;6.472;2022-12-18T11:24:57;12.20;;;7.17;;
15363;SDS011;7781;49.690;6.472;2022-12-18T11:27:48;16.20;;;7.80;;
15363;SDS011;7781;49.690;6.472;2022-12-18T11:30:22;13.07;;;7.73;;
15363;SDS011;7781;49.690;6.472;2022-12-18T11:32:53;14.97;;;7.73;;
15363;SDS011;7781;49.690;6.472;2022-12-18T11:35:35;16.63;;;8.00;;
15363;SDS011;7781;49.690;6.472;2022-12-18T11:38:11;16.83;;;8.70;;
15363;SDS011;7781;49.690;6.472;2022-12-18T11:40:49;19.77;;;8.90;;
15363;SDS011;7781;49.690;6.472;2022-12-18T11:43:25;18.67;;;9.80;;
15363;SDS011;7781;49.690;6.472;2022-12-18T11:45:59;18.00;;;8.10;;
15363;SDS011;7781;49.690;6.472;2022-12-18T11:48:32;26.07;;;10.77;;
15363;SDS011;7781;49.690;6.472;2022-12-18T11:51:09;16.87;;;8.67;;
15363;SDS011;7781;49.690;6.472;2022-12-18T11:53:44;15.13;;;8.07;;
15363;SDS011;7781;49.690;6.472;2022-12-18T11:56:24;31.10;;;13.80;;
15363;SDS011;7781;49.690;6.472;2022-12-18T11:59:03;14.80;;;8.17;;
15363;SDS011;7781;49.690;6.472;2022-12-18T12:01:44;21.33;;;9.80;;
15363;SDS011;7781;49.690;6.472;2022-12-18T12:07:36;13.60;;;8.33;;
15363;SDS011;7781;49.690;6.472;2022-12-18T12:10:20;12.60;;;7.53;;
15363;SDS011;7781;49.690;6.472;2022-12-18T12:13:11;16.37;;;7.37;;
15363;SDS011;7781;49.690;6.472;2022-12-18T12:15:59;13.77;;;7.63;;
15363;SDS011;7781;49.690;6.472;2022-12-18T12:18:37;11.50;;;7.53;;
15363;SDS011;7781;49.690;6.472;2022-12-18T12:21:18;14.20;;;7.77;;
15363;SDS011;7781;49.690;6.472;2022-12-18T12:23:53;19.07;;;8.93;;
15363;SDS011;7781;49.690;6.472;2022-12-18T12:26:32;18.30;;;8.17;;
15363;SDS011;7781;49.690;6.472;2022-12-18T12:29:09;18.57;;;8.70;;
15363;SDS011;7781;49.690;6.472;2022-12-18T12:31:53;14.83;;;7.70;;
15363;SDS011;7781;49.690;6.472;2022-12-18T12:34:36;14.20;;;7.47;;
15363;SDS011;7781;49.690;6.472;2022-12-18T12:37:16;15.47;;;8.00;;
15363;SDS011;7781;49.690;6.472;2022-12-18T12:39:52;15.07;;;8.47;;
15363;SDS011;7781;49.690;6.472;2022-12-18T12:42:24;15.73;;;7.60;;
15363;SDS011;7781;49.690;6.472;2022-12-18T12:45:21;14.80;;;9.43;;
15363;SDS011;7781;49.690;6.472;2022-12-18T12:47:56;24.40;;;10.20;;
15363;SDS011;7781;49.690;6.472;2022-12-18T12:50:27;18.07;;;9.10;;
15363;SDS011;7781;49.690;6.472;2022-12-18T12:52:57;16.57;;;8.07;;
15363;SDS011;7781;49.690;6.472;2022-12-18T12:55:27;18.13;;;9.50;;
15363;SDS011;7781;49.690;6.472;2022-12-18T12:57:59;13.20;;;8.10;;
15363;SDS011;7781;49.690;6.472;2022-12-18T13:00:39;19.00;;;8.73;;
15363;SDS011;7781;49.690;6.472;2022-12-18T13:03:27;16.73;;;8.90;;
15363;SDS011;7781;49.690;6.472;2022-12-18T13:06:08;23.43;;;8.20;;
15363;SDS011;7781;49.690;6.472;2022-12-18T13:08:52;17.87;;;9.23;;
15363;SDS011;7781;49.690;6.472;2022-12-18T13:11:28;18.87;;;8.73;;
15363;SDS011;7781;49.690;6.472;2022-12-18T13:14:27;17.03;;;9.67;;
15363;SDS011;7781;49.690;6.472;2022-12-18T13:20:10;15.30;;;9.10;;
15363;SDS011;7781;49.690;6.472;2022-12-18T13:22:43;17.33;;;8.57;;
15363;SDS011;7781;49.690;6.472;2022-12-18T13:25:30;16.60;;;8.03;;
15363;SDS011;7781;49.690;6.472;2022-12-18T13:28:06;16.60;;;8.80;;
15363;SDS011;7781;49.690;6.472;2022-12-18T13:30:52;17.20;;;9.40;;
15363;SDS011;7781;49.690;6.472;2022-12-18T13:36:40;16.50;;;8.80;;
15363;SDS011;7781;49.690;6.472;2022-12-18T13:39:11;24.90;;;11.03;;
15363;SDS011;7781;49.690;6.472;2022-12-18T13:48:29;21.07;;;8.97;;
15363;SDS011;7781;49.690;6.472;2022-12-18T13:51:01;21.50;;;8.53;;
15363;SDS011;7781;49.690;6.472;2022-12-18T13:53:35;18.67;;;8.83;;
15363;SDS011;7781;49.690;6.472;2022-12-18T13:56:07;21.97;;;9.07;;
15363;SDS011;7781;49.690;6.472;2022-12-18T13:58:37;15.07;;;8.37;;
15363;SDS011;7781;49.690;6.472;2022-12-18T14:01:13;18.70;;;9.00;;
15363;SDS011;7781;49.690;6.472;2022-12-18T14:03:50;16.70;;;8.67;;
15363;SDS011;7781;49.690;6.472;2022-12-18T14:06:21;20.70;;;9.67;;
15363;SDS011;7781;49.690;6.472;2022-12-18T14:08:51;15.57;;;9.00;;
15363;SDS011;7781;49.690;6.472;2022-12-18T14:11:22;17.17;;;8.27;;
15363;SDS011;7781;49.690;6.472;2022-12-18T14:13:52;18.50;;;9.63;;
15363;SDS011;7781;49.690;6.472;2022-12-18T14:16:21;19.50;;;9.47;;
15363;SDS011;7781;49.690;6.472;2022-12-18T14:18:51;19.40;;;8.83;;
15363;SDS011;7781;49.690;6.472;2022-12-18T14:21:36;16.67;;;8.83;;
15363;SDS011;7781;49.690;6.472;2022-12-18T14:24:15;15.83;;;9.07;;
15363;SDS011;7781;49.690;6.472;2022-12-18T14:26:45;16.90;;;9.23;;
15363;SDS011;7781;49.690;6.472;2022-12-18T14:29:23;19.97;;;8.87;;
15363;SDS011;7781;49.690;6.472;2022-12-18T14:32:08;21.87;;;9.30;;
15363;SDS011;7781;49.690;6.472;2022-12-18T14:34:45;17.97;;;10.00;;
15363;SDS011;7781;49.690;6.472;2022-12-18T14:37:15;17.10;;;8.83;;
15363;SDS011;7781;49.690;6.472;2022-12-18T14:39:53;18.90;;;9.73;;
15363;SDS011;7781;49.690;6.472;2022-12-18T14:42:24;17.47;;;9.47;;
15363;SDS011;7781;49.690;6.472;2022-12-18T14:48:09;20.30;;;8.90;;
15363;SDS011;7781;49.690;6.472;2022-12-18T14:50:59;20.27;;;9.53;;
15363;SDS011;7781;49.690;6.472;2022-12-18T14:53:34;15.83;;;8.30;;
15363;SDS011;7781;49.690;6.472;2022-12-18T14:56:25;17.00;;;9.77;;
15363;SDS011;7781;49.690;6.472;2022-12-18T14:58:56;21.10;;;9.50;;
15363;SDS011;7781;49.690;6.472;2022-12-18T15:01:27;20.00;;;9.00;;
15363;SDS011;7781;49.690;6.472;2022-12-18T15:03:58;18.57;;;9.17;;
15363;SDS011;7781;49.690;6.472;2022-12-18T15:06:30;17.60;;;8.63;;
15363;SDS011;7781;49.690;6.472;2022-12-18T15:09:01;15.93;;;8.60;;
15363;SDS011;7781;49.690;6.472;2022-12-18T15:11:36;15.80;;;8.70;;
15363;SDS011;7781;49.690;6.472;2022-12-18T15:14:24;14.70;;;7.80;;
15363;SDS011;7781;49.690;6.472;2022-12-18T15:17:02;16.10;;;8.00;;
15363;SDS011;7781;49.690;6.472;2022-12-18T15:19:36;17.57;;;8.13;;
15363;SDS011;7781;49.690;6.472;2022-12-18T15:24:58;19.17;;;8.10;;
15363;SDS011;7781;49.690;6.472;2022-12-18T15:27:32;17.70;;;8.60;;
15363;SDS011;7781;49.690;6.472;2022-12-18T15:30:20;15.90;;;8.20;;
15363;SDS011;7781;49.690;6.472;2022-12-18T15:32:51;15.13;;;8.20;;
15363;SDS011;7781;49.690;6.472;2022-12-18T15:35:21;17.23;;;9.37;;
15363;SDS011;7781;49.690;6.472;2022-12-18T15:37:51;19.20;;;7.90;;
15363;SDS011;7781;49.690;6.472;2022-12-18T15:40:21;18.03;;;7.37;;
15363;SDS011;7781;49.690;6.472;2022-12-18T15:42:53;18.40;;;8.97;;
15363;SDS011;7781;49.690;6.472;2022-12-18T15:45:40;18.47;;;9.10;;
15363;SDS011;7781;49.690;6.472;2022-12-18T15:48:15;15.63;;;8.33;;
15363;SDS011;7781;49.690;6.472;2022-12-18T15:50:50;16.70;;;8.13;;
15363;SDS011;7781;49.690;6.472;2022-12-18T15:53:19;20.43;;;8.70;;